Time;durP1;ratioP1;P1;durP2;ratioP2;P2;SDS_P1;SDS_P2;PMS_P1;PMS_P2;Temp;Humidity;BMP_temperature;BMP_pressure;BME280_temperature;BME280_humidity;BME280_pressure;Samples;Min_cycle;Max_cycle;Signal;HPM_P1;HPM_P2
2023/01/05 00:01:32;;;;;;;0.05;0.05;;;;;;;;;;5050954;28;20049;-63
2023/01/05 00:04:00;;;;;;;0.10;0.10;;;;;;;;;;5045724;28;20405;-63
2023/01/05 00:06:28;;;;;;;0.10;0.10;;;;;;;;;;5041206;28;20057;-63
2023/01/05 00:08:58;;;;;;;0.10;0.10;;;;;;;;;;5044758;28;20492;-63
2023/01/05 00:22:34;;;;;;;0.10;0.10;;;;;;;;;;5047145;28;20045;-62
2023/01/05 00:25:05;;;;;;;0.05;0.05;;;;;;;;;;5039180;28;20164;-63
2023/01/05 00:27:40;;;;;;;0.10;0.10;;;;;;;;;;5045758;28;20049;-63
2023/01/05 00:30:09;;;;;;;0.10;0.10;;;;;;;;;;5044119;28;20048;-63
2023/01/05 00:32:38;;;;;;;0.10;0.10;;;;;;;;;;5051398;28;20059;-63
2023/01/05 00:35:06;;;;;;;0.10;0.10;;;;;;;;;;5047915;28;20041;-63
2023/01/05 00:37:36;;;;;;;0.10;0.10;;;;;;;;;;5047212;28;20044;-63
2023/01/05 00:40:07;;;;;;;0.08;0.08;;;;;;;;;;5049417;28;20045;-63
2023/01/05 00:42:36;;;;;;;0.00;0.00;;;;;;;;;;5046023;28;20049;-63
2023/01/05 00:45:04;;;;;;;0.10;0.10;;;;;;;;;;5047312;28;20051;-63
2023/01/05 00:47:32;;;;;;;0.00;0.00;;;;;;;;;;5047069;28;20056;-63
2023/01/05 00:50:01;;;;;;;0.10;0.10;;;;;;;;;;5050472;28;20056;-62
2023/01/05 00:52:29;;;;;;;0.10;0.10;;;;;;;;;;5047426;28;20425;-63
2023/01/05 00:54:57;;;;;;;0.10;0.10;;;;;;;;;;5048109;28;20061;-63
2023/01/05 00:57:27;;;;;;;0.20;0.17;;;;;;;;;;5046445;28;20060;-63
2023/01/05 00:59:55;;;;;;;0.10;0.10;;;;;;;;;;5050128;28;20057;-64
2023/01/05 01:02:23;;;;;;;0.10;0.10;;;;;;;;;;5041757;28;20102;-63
2023/01/05 01:04:51;;;;;;;0.13;0.13;;;;;;;;;;5052061;28;20053;-63
2023/01/05 01:07:20;;;;;;;0.10;0.10;;;;;;;;;;5044731;28;20041;-63
2023/01/05 01:09:48;;;;;;;0.10;0.10;;;;;;;;;;5048602;28;20088;-64
2023/01/05 01:12:16;;;;;;;0.00;0.00;;;;;;;;;;5044402;28;20068;-64
2023/01/05 01:14:48;;;;;;;0.10;0.10;;;;;;;;;;5052033;28;20392;-64
2023/01/05 01:17:16;;;;;;;0.10;0.10;;;;;;;;;;5046308;28;20052;-64
2023/01/05 01:19:45;;;;;;;0.10;0.10;;;;;;;;;;5050231;28;20156;-63
2023/01/05 01:22:14;;;;;;;0.10;0.10;;;;;;;;;;5047126;28;20060;-64
2023/01/05 01:24:42;;;;;;;0.10;0.10;;;;;;;;;;5050411;28;20056;-63
2023/01/05 01:27:10;;;;;;;0.10;0.10;;;;;;;;;;5055521;28;20477;-63
2023/01/05 01:29:39;;;;;;;0.08;0.08;;;;;;;;;;5046403;28;20051;-63
2023/01/05 01:32:08;;;;;;;0.10;0.10;;;;;;;;;;5045376;28;20048;-64
2023/01/05 01:34:38;;;;;;;0.03;0.03;;;;;;;;;;5047985;28;20056;-63
2023/01/05 01:37:06;;;;;;;0.00;0.00;;;;;;;;;;5048197;28;20077;-63
2023/01/05 01:39:34;;;;;;;0.17;0.13;;;;;;;;;;5049014;28;20060;-64
2023/01/05 01:42:03;;;;;;;0.10;0.10;;;;;;;;;;5048608;28;20045;-64
2023/01/05 01:44:51;;;;;;;0.00;0.00;;;;;;;;;;5051296;28;20128;-63
2023/01/05 01:47:24;;;;;;;0.00;0.00;;;;;;;;;;5046891;28;20060;-64
2023/01/05 01:49:53;;;;;;;0.00;0.00;;;;;;;;;;5043868;28;20052;-63
2023/01/05 01:52:23;;;;;;;0.00;0.00;;;;;;;;;;5048273;28;20045;-63
2023/01/05 01:54:52;;;;;;;0.05;0.05;;;;;;;;;;5045644;28;20047;-63
2023/01/05 01:57:21;;;;;;;0.10;0.10;;;;;;;;;;5046809;28;20037;-63
2023/01/05 01:59:50;;;;;;;0.00;0.00;;;;;;;;;;5046814;28;20052;-63
2023/01/05 02:02:19;;;;;;;0.10;0.10;;;;;;;;;;5048606;28;20103;-63
2023/01/05 02:04:49;;;;;;;0.20;0.10;;;;;;;;;;5045560;28;20057;-64
2023/01/05 02:07:17;;;;;;;0.00;0.00;;;;;;;;;;5047695;28;20045;-63
2023/01/05 02:09:46;;;;;;;0.10;0.10;;;;;;;;;;5048237;28;20494;-64
2023/01/05 02:12:21;;;;;;;0.10;0.10;;;;;;;;;;5045823;28;20502;-63
2023/01/05 02:14:57;;;;;;;0.03;0.03;;;;;;;;;;5046398;28;20053;-63
2023/01/05 02:17:31;;;;;;;0.10;0.10;;;;;;;;;;5049031;28;20099;-63
2023/01/05 02:20:31;;;;;;;0.10;0.10;;;;;;;;;;5043024;28;20487;-64
2023/01/05 02:23:28;;;;;;;0.10;0.10;;;;;;;;;;5046683;28;20480;-64
2023/01/05 02:26:08;;;;;;;0.22;0.20;;;;;;;;;;5043530;28;20044;-64
2023/01/05 02:28:44;;;;;;;0.00;0.00;;;;;;;;;;5046958;28;20044;-64
2023/01/05 02:31:16;;;;;;;0.00;0.00;;;;;;;;;;5047754;28;20432;-63
2023/01/05 02:33:54;;;;;;;0.00;0.00;;;;;;;;;;5050630;28;20084;-63
2023/01/05 02:36:25;;;;;;;0.13;0.10;;;;;;;;;;5046981;28;20056;-63
2023/01/05 02:38:59;;;;;;;0.52;0.08;;;;;;;;;;5044168;28;20167;-63
2023/01/05 02:41:32;;;;;;;0.10;0.10;;;;;;;;;;5047012;28;20800;-64
2023/01/05 02:44:01;;;;;;;0.10;0.10;;;;;;;;;;5041510;28;20057;-64
2023/01/05 02:46:31;;;;;;;0.10;0.10;;;;;;;;;;5047591;28;20053;-64
2023/01/05 02:48:59;;;;;;;0.10;0.10;;;;;;;;;;5046354;28;20135;-63
2023/01/05 02:51:30;;;;;;;0.10;0.10;;;;;;;;;;5050098;28;20048;-63
2023/01/05 02:54:02;;;;;;;0.10;0.10;;;;;;;;;;5043185;28;20059;-61
2023/01/05 02:56:32;;;;;;;0.75;0.10;;;;;;;;;;5045977;28;20049;-63
2023/01/05 02:59:03;;;;;;;0.20;0.10;;;;;;;;;;5039504;28;20049;-63
2023/01/05 03:01:34;;;;;;;0.10;0.10;;;;;;;;;;5043968;28;20379;-63
2023/01/05 03:04:06;;;;;;;0.15;0.00;;;;;;;;;;5048516;28;20092;-63
2023/01/05 03:06:37;;;;;;;0.00;0.00;;;;;;;;;;5041381;28;20053;-63
2023/01/05 03:09:06;;;;;;;0.10;0.10;;;;;;;;;;5046745;28;20048;-63
2023/01/05 03:14:31;;;;;;;0.00;0.00;;;;;;;;;;5047672;28;20371;-63
2023/01/05 03:17:01;;;;;;;0.05;0.05;;;;;;;;;;5050197;28;20082;-63
2023/01/05 03:19:38;;;;;;;0.10;0.10;;;;;;;;;;5045815;28;20049;-63
2023/01/05 03:36:13;;;;;;;0.10;0.10;;;;;;;;;;5046833;28;20052;-63
2023/01/05 03:38:43;;;;;;;0.10;0.10;;;;;;;;;;5043142;28;20060;-63
2023/01/05 03:41:14;;;;;;;0.00;0.00;;;;;;;;;;5046773;28;20077;-63
2023/01/05 03:43:42;;;;;;;0.00;0.00;;;;;;;;;;5045205;28;20053;-63
2023/01/05 03:46:11;;;;;;;0.00;0.00;;;;;;;;;;5046208;28;20433;-63
2023/01/05 03:48:41;;;;;;;0.40;0.10;;;;;;;;;;5046972;28;20052;-63
2023/01/05 03:51:10;;;;;;;0.00;0.00;;;;;;;;;;5042955;28;20056;-64
2023/01/05 03:53:38;;;;;;;0.10;0.10;;;;;;;;;;5044056;28;20076;-64
2023/01/05 03:56:06;;;;;;;0.00;0.00;;;;;;;;;;5042399;28;20053;-64
2023/01/05 03:58:35;;;;;;;0.00;0.00;;;;;;;;;;5047616;28;20488;-63
2023/01/05 04:01:03;;;;;;;0.00;0.00;;;;;;;;;;5046424;28;20057;-62
2023/01/05 04:03:31;;;;;;;0.00;0.00;;;;;;;;;;5043508;28;20041;-63
2023/01/05 04:06:01;;;;;;;0.00;0.00;;;;;;;;;;5048341;28;20049;-63
2023/01/05 04:08:30;;;;;;;0.00;0.00;;;;;;;;;;5047574;28;20055;-63
2023/01/05 04:11:10;;;;;;;0.10;0.10;;;;;;;;;;5048309;28;20041;-63
2023/01/05 04:13:38;;;;;;;0.10;0.10;;;;;;;;;;5048137;28;20052;-63
2023/01/05 04:16:07;;;;;;;0.30;0.30;;;;;;;;;;5048284;28;20477;-63
2023/01/05 04:18:35;;;;;;;0.10;0.10;;;;;;;;;;5051300;28;20056;-63
2023/01/05 04:21:05;;;;;;;0.15;0.15;;;;;;;;;;5050196;28;20049;-63
2023/01/05 04:23:33;;;;;;;0.10;0.05;;;;;;;;;;5050048;28;20052;-62
2023/01/05 04:26:02;;;;;;;0.00;0.00;;;;;;;;;;5052785;28;20060;-63
2023/01/05 04:28:30;;;;;;;0.03;0.03;;;;;;;;;;5045862;28;20134;-63
2023/01/05 04:30:58;;;;;;;0.10;0.10;;;;;;;;;;5049551;28;20045;-63
2023/01/05 04:33:27;;;;;;;0.10;0.10;;;;;;;;;;5038478;28;20136;-63
2023/01/05 04:35:55;;;;;;;0.00;0.00;;;;;;;;;;5044207;28;20041;-63
2023/01/05 04:38:25;;;;;;;0.10;0.10;;;;;;;;;;5052306;28;20135;-64
2023/01/05 04:40:53;;;;;;;0.00;0.00;;;;;;;;;;5050760;28;20425;-63
2023/01/05 04:43:21;;;;;;;0.10;0.10;;;;;;;;;;5042019;28;20063;-63
2023/01/05 04:45:50;;;;;;;0.00;0.00;;;;;;;;;;5051402;28;20049;-63
2023/01/05 04:48:18;;;;;;;0.13;0.13;;;;;;;;;;5049876;28;20064;-63
2023/01/05 04:50:52;;;;;;;0.00;0.00;;;;;;;;;;5050438;28;20052;-63
2023/01/05 04:53:21;;;;;;;0.00;0.00;;;;;;;;;;5048314;28;21255;-63
2023/01/05 04:55:51;;;;;;;1.95;0.10;;;;;;;;;;5047333;28;20053;-63
2023/01/05 04:58:19;;;;;;;0.10;0.10;;;;;;;;;;5049181;28;20052;-63
2023/01/05 05:00:49;;;;;;;0.15;0.03;;;;;;;;;;5049511;28;20394;-63
2023/01/05 05:03:17;;;;;;;0.10;0.10;;;;;;;;;;5041090;28;20069;-64
2023/01/05 05:05:45;;;;;;;0.13;0.13;;;;;;;;;;5046716;28;20045;-63
2023/01/05 05:08:14;;;;;;;0.77;0.70;;;;;;;;;;5050901;28;20091;-63
2023/01/05 05:10:42;;;;;;;0.10;0.10;;;;;;;;;;5046419;28;20081;-63
2023/01/05 05:13:12;;;;;;;0.30;0.30;;;;;;;;;;5046621;28;20056;-63
2023/01/05 05:15:40;;;;;;;0.10;0.10;;;;;;;;;;5047405;28;20049;-63
2023/01/05 05:18:08;;;;;;;0.10;0.10;;;;;;;;;;5045931;28;20394;-63
2023/01/05 05:20:37;;;;;;;0.10;0.10;;;;;;;;;;5050420;28;20468;-63
2023/01/05 05:23:05;;;;;;;0.10;0.10;;;;;;;;;;5047140;28;20490;-63
2023/01/05 05:25:33;;;;;;;0.05;0.05;;;;;;;;;;5046485;28;20053;-63
2023/01/05 05:28:02;;;;;;;0.10;0.10;;;;;;;;;;5050484;28;20099;-63
2023/01/05 05:30:31;;;;;;;0.10;0.10;;;;;;;;;;5039738;28;20506;-63
2023/01/05 05:33:00;;;;;;;0.05;0.05;;;;;;;;;;5044580;28;20045;-63
2023/01/05 05:35:28;;;;;;;0.00;0.00;;;;;;;;;;5042936;28;20048;-63
2023/01/05 05:37:56;;;;;;;0.10;0.10;;;;;;;;;;5042957;28;20389;-63
2023/01/05 05:40:25;;;;;;;0.52;0.30;;;;;;;;;;5047812;28;20048;-62
2023/01/05 05:42:53;;;;;;;0.10;0.10;;;;;;;;;;5043471;28;20049;-62
2023/01/05 05:45:21;;;;;;;0.10;0.10;;;;;;;;;;5048808;28;20055;-63
2023/01/05 05:47:51;;;;;;;0.00;0.00;;;;;;;;;;5047486;28;20045;-62
2023/01/05 05:50:19;;;;;;;1.70;0.05;;;;;;;;;;5048270;28;20049;-62
2023/01/05 05:52:48;;;;;;;0.47;0.17;;;;;;;;;;5046978;28;20520;-62
2023/01/05 05:55:16;;;;;;;0.10;0.10;;;;;;;;;;5045792;28;20049;-62
2023/01/05 05:57:44;;;;;;;0.10;0.10;;;;;;;;;;5051262;28;20083;-63
2023/01/05 06:00:13;;;;;;;0.55;0.20;;;;;;;;;;5042493;28;20120;-63
2023/01/05 06:02:41;;;;;;;0.00;0.00;;;;;;;;;;5044340;28;20483;-63
2023/01/05 06:05:11;;;;;;;0.10;0.10;;;;;;;;;;5044505;28;20045;-62
2023/01/05 06:07:39;;;;;;;0.20;0.20;;;;;;;;;;5048895;28;20041;-62
2023/01/05 06:10:08;;;;;;;0.30;0.20;;;;;;;;;;5046691;28;20309;-65
2023/01/05 06:12:37;;;;;;;0.10;0.10;;;;;;;;;;5041748;28;20041;-65
2023/01/05 06:15:05;;;;;;;0.03;0.03;;;;;;;;;;5041885;28;20084;-63
2023/01/05 06:17:34;;;;;;;0.00;0.00;;;;;;;;;;5048648;28;20052;-63
2023/01/05 06:20:02;;;;;;;6.10;1.58;;;;;;;;;;5046848;28;20049;-63
2023/01/05 06:22:32;;;;;;;0.03;0.03;;;;;;;;;;5046293;28;20059;-62
2023/01/05 06:25:00;;;;;;;0.22;0.22;;;;;;;;;;5042324;28;20525;-62
2023/01/05 06:27:28;;;;;;;0.00;0.00;;;;;;;;;;5049310;28;20432;-62
2023/01/05 06:29:57;;;;;;;0.00;0.00;;;;;;;;;;5037878;28;20089;-62
2023/01/05 06:32:25;;;;;;;0.00;0.00;;;;;;;;;;5044627;28;20412;-61
2023/01/05 06:34:53;;;;;;;0.10;0.10;;;;;;;;;;5051755;28;20472;-60
2023/01/05 06:37:21;;;;;;;0.00;0.00;;;;;;;;;;5044636;28;20048;-61
2023/01/05 06:39:51;;;;;;;0.00;0.00;;;;;;;;;;5048321;28;20059;-60
2023/01/05 06:42:19;;;;;;;0.00;0.00;;;;;;;;;;5046550;28;20498;-61
2023/01/05 06:44:51;;;;;;;0.28;0.28;;;;;;;;;;5038022;28;20071;-60
2023/01/05 06:47:19;;;;;;;0.28;0.20;;;;;;;;;;5042795;28;20052;-61
2023/01/05 06:49:47;;;;;;;0.20;0.20;;;;;;;;;;5042806;28;20037;-61
2023/01/05 06:52:16;;;;;;;0.15;0.15;;;;;;;;;;5037938;28;20045;-61
2023/01/05 06:54:44;;;;;;;0.03;0.03;;;;;;;;;;5050221;28;20056;-60
2023/01/05 06:57:14;;;;;;;0.10;0.10;;;;;;;;;;5048409;28;20059;-60
2023/01/05 06:59:42;;;;;;;0.10;0.10;;;;;;;;;;5046968;28;20395;-60
2023/01/05 07:02:13;;;;;;;0.28;0.17;;;;;;;;;;5042064;28;20064;-60
2023/01/05 07:04:42;;;;;;;0.20;0.20;;;;;;;;;;5041635;28;20053;-61
2023/01/05 07:07:12;;;;;;;0.10;0.10;;;;;;;;;;5041623;28;20049;-61
2023/01/05 07:09:40;;;;;;;0.10;0.10;;;;;;;;;;5040468;28;20048;-61
2023/01/05 07:12:08;;;;;;;0.00;0.00;;;;;;;;;;5042781;28;20072;-60
2023/01/05 07:14:38;;;;;;;0.10;0.10;;;;;;;;;;5040936;28;20493;-60
2023/01/05 07:17:06;;;;;;;0.05;0.05;;;;;;;;;;5042482;28;20045;-61
2023/01/05 07:19:34;;;;;;;0.10;0.10;;;;;;;;;;5047189;28;20049;-61
2023/01/05 07:22:03;;;;;;;0.38;0.20;;;;;;;;;;5035452;28;20476;-61
2023/01/05 07:24:31;;;;;;;1.25;0.10;;;;;;;;;;5041646;28;20147;-61
2023/01/05 07:26:59;;;;;;;0.10;0.10;;;;;;;;;;5045415;28;20071;-61
2023/01/05 07:29:36;;;;;;;0.00;0.00;;;;;;;;;;5043642;28;20048;-61
2023/01/05 07:32:06;;;;;;;0.10;0.10;;;;;;;;;;5043001;28;20059;-62
2023/01/05 07:34:34;;;;;;;0.00;0.00;;;;;;;;;;5041038;28;20132;-61
2023/01/05 07:37:03;;;;;;;0.00;0.00;;;;;;;;;;5041958;28;20527;-61
2023/01/05 07:39:31;;;;;;;0.10;0.10;;;;;;;;;;5044875;28;20401;-61
2023/01/05 07:41:59;;;;;;;0.28;0.17;;;;;;;;;;5046715;28;20477;-61
2023/01/05 07:44:27;;;;;;;0.10;0.10;;;;;;;;;;5049105;28;20501;-61
2023/01/05 07:46:57;;;;;;;0.32;0.20;;;;;;;;;;5039697;28;20056;-61
2023/01/05 07:49:28;;;;;;;0.35;0.20;;;;;;;;;;5043521;28;20057;-62
2023/01/05 07:51:56;;;;;;;0.10;0.10;;;;;;;;;;5047491;28;20143;-61
2023/01/05 07:54:26;;;;;;;0.20;0.20;;;;;;;;;;5048755;28;20127;-61
2023/01/05 07:56:54;;;;;;;0.20;0.10;;;;;;;;;;5051996;28;20073;-62
2023/01/05 07:59:22;;;;;;;1.27;0.28;;;;;;;;;;5048716;28;20064;-62
2023/01/05 08:01:51;;;;;;;0.00;0.00;;;;;;;;;;5048225;28;20049;-62
2023/01/05 08:04:19;;;;;;;0.10;0.10;;;;;;;;;;5049408;28;20064;-62
2023/01/05 08:06:49;;;;;;;1.10;0.20;;;;;;;;;;5045391;28;20492;-62
2023/01/05 08:12:04;;;;;;;0.00;0.00;;;;;;;;;;5049720;28;20040;-63
2023/01/05 08:14:32;;;;;;;0.00;0.00;;;;;;;;;;5047417;28;22726;-62
2023/01/05 08:17:00;;;;;;;0.10;0.10;;;;;;;;;;5045604;28;20106;-61
2023/01/05 08:19:29;;;;;;;0.10;0.10;;;;;;;;;;5048002;28;20076;-61
2023/01/05 08:21:59;;;;;;;0.10;0.10;;;;;;;;;;5049261;28;20045;-62
2023/01/05 08:24:27;;;;;;;0.00;0.00;;;;;;;;;;5044337;28;20515;-62
2023/01/05 08:26:56;;;;;;;0.00;0.00;;;;;;;;;;5044600;28;20045;-62
2023/01/05 08:29:24;;;;;;;0.00;0.00;;;;;;;;;;5045198;28;20056;-61
2023/01/05 08:31:52;;;;;;;0.00;0.00;;;;;;;;;;5048762;28;20140;-64
2023/01/05 08:34:21;;;;;;;0.08;0.08;;;;;;;;;;5042266;28;20069;-62
2023/01/05 08:36:49;;;;;;;0.10;0.10;;;;;;;;;;5045629;28;20049;-63
2023/01/05 08:39:19;;;;;;;0.10;0.10;;;;;;;;;;5050681;28;20060;-62
2023/01/05 08:41:47;;;;;;;0.00;0.00;;;;;;;;;;5048692;28;20076;-62
2023/01/05 08:44:16;;;;;;;1.10;0.28;;;;;;;;;;5044151;28;20124;-62
2023/01/05 08:46:44;;;;;;;0.10;0.10;;;;;;;;;;5041139;28;20111;-62
2023/01/05 08:49:12;;;;;;;0.13;0.13;;;;;;;;;;5047195;28;20048;-62
2023/01/05 08:51:41;;;;;;;0.00;0.00;;;;;;;;;;5046767;28;20143;-61
2023/01/05 08:54:09;;;;;;;1.00;0.10;;;;;;;;;;5046252;28;20057;-63
2023/01/05 08:56:39;;;;;;;0.00;0.00;;;;;;;;;;5044741;28;20049;-62
2023/01/05 08:59:08;;;;;;;0.00;0.00;;;;;;;;;;5043873;28;20247;-62
2023/01/05 09:01:37;;;;;;;0.03;0.03;;;;;;;;;;5047619;28;20045;-62
2023/01/05 09:04:05;;;;;;;0.10;0.10;;;;;;;;;;5046009;28;20057;-62
2023/01/05 09:06:34;;;;;;;0.00;0.00;;;;;;;;;;5045071;28;20050;-61
2023/01/05 09:09:02;;;;;;;0.35;0.28;;;;;;;;;;5044802;28;20057;-62
2023/01/05 09:11:32;;;;;;;5.57;0.30;;;;;;;;;;5048121;28;20393;-62
2023/01/05 09:14:02;;;;;;;0.10;0.10;;;;;;;;;;5035492;28;20053;-62
2023/01/05 09:16:31;;;;;;;0.30;0.20;;;;;;;;;;5043716;28;20045;-62
2023/01/05 09:19:19;;;;;;;0.20;0.20;;;;;;;;;;5044517;28;20053;-62
2023/01/05 09:21:48;;;;;;;0.15;0.15;;;;;;;;;;5043922;28;20049;-61
2023/01/05 09:24:16;;;;;;;0.03;0.03;;;;;;;;;;5041482;28;20056;-62
2023/01/05 09:26:45;;;;;;;0.70;0.15;;;;;;;;;;5045885;28;20450;-61
2023/01/05 09:29:15;;;;;;;0.95;0.10;;;;;;;;;;5038414;28;20123;-62
2023/01/05 09:31:44;;;;;;;0.15;0.15;;;;;;;;;;5045726;28;20429;-62
2023/01/05 09:34:12;;;;;;;0.10;0.10;;;;;;;;;;5041602;28;20096;-62
2023/01/05 09:36:40;;;;;;;0.10;0.10;;;;;;;;;;5036583;28;20533;-61
2023/01/05 09:39:10;;;;;;;0.10;0.10;;;;;;;;;;5043527;28;20111;-62
2023/01/05 09:41:40;;;;;;;1.55;0.20;;;;;;;;;;5047862;28;20084;-62
2023/01/05 09:44:13;;;;;;;0.10;0.10;;;;;;;;;;5048202;28;20470;-61
2023/01/05 09:46:44;;;;;;;0.20;0.20;;;;;;;;;;5041500;28;20099;-61
2023/01/05 09:49:13;;;;;;;0.10;0.10;;;;;;;;;;5045565;28;20501;-62
2023/01/05 09:51:42;;;;;;;0.00;0.00;;;;;;;;;;5046603;28;20049;-61
2023/01/05 09:54:16;;;;;;;0.10;0.10;;;;;;;;;;5044904;28;20060;-62
2023/01/05 09:56:45;;;;;;;0.10;0.10;;;;;;;;;;5043678;28;20152;-61
2023/01/05 09:59:35;;;;;;;0.00;0.00;;;;;;;;;;5049273;28;20480;-62
2023/01/05 10:02:07;;;;;;;0.10;0.10;;;;;;;;;;5048155;28;20087;-61
2023/01/05 10:04:35;;;;;;;0.10;0.10;;;;;;;;;;5046354;28;20052;-61
2023/01/05 10:07:05;;;;;;;0.13;0.13;;;;;;;;;;5048428;28;20045;-62
2023/01/05 10:09:38;;;;;;;0.10;0.10;;;;;;;;;;5047597;28;20129;-62
2023/01/05 10:15:03;;;;;;;0.00;0.00;;;;;;;;;;5049679;28;20500;-61
2023/01/05 10:17:33;;;;;;;0.35;0.30;;;;;;;;;;5046296;28;20059;-61
2023/01/05 10:20:15;;;;;;;0.05;0.05;;;;;;;;;;5046082;28;20067;-62
2023/01/05 10:22:48;;;;;;;0.10;0.10;;;;;;;;;;5043183;28;20457;-62
2023/01/05 10:25:20;;;;;;;0.10;0.10;;;;;;;;;;5041074;28;20468;-61
2023/01/05 10:27:52;;;;;;;0.10;0.10;;;;;;;;;;5046857;28;20509;-62
2023/01/05 10:30:25;;;;;;;0.10;0.10;;;;;;;;;;5047218;28;20110;-62
2023/01/05 10:33:00;;;;;;;0.60;0.20;;;;;;;;;;5050467;28;20479;-62
2023/01/05 10:35:53;;;;;;;0.10;0.10;;;;;;;;;;5047057;28;20053;-62
2023/01/05 10:38:46;;;;;;;0.10;0.10;;;;;;;;;;5043873;28;20056;-62
2023/01/05 10:41:20;;;;;;;0.38;0.25;;;;;;;;;;5043927;28;20056;-61
2023/01/05 10:43:58;;;;;;;0.20;0.20;;;;;;;;;;5042198;28;20437;-62
2023/01/05 10:46:26;;;;;;;0.10;0.10;;;;;;;;;;5044221;28;20137;-61
2023/01/05 10:49:09;;;;;;;0.10;0.10;;;;;;;;;;5047448;28;20059;-61
2023/01/05 10:51:38;;;;;;;0.00;0.00;;;;;;;;;;5047817;28;20051;-61
2023/01/05 10:54:06;;;;;;;0.13;0.13;;;;;;;;;;5044688;28;20041;-61
2023/01/05 10:56:35;;;;;;;0.20;0.20;;;;;;;;;;5047332;28;20053;-62
2023/01/05 10:59:08;;;;;;;0.15;0.15;;;;;;;;;;5045215;28;20103;-61
2023/01/05 11:01:37;;;;;;;0.10;0.10;;;;;;;;;;5046481;28;20135;-61
2023/01/05 11:04:08;;;;;;;0.20;0.20;;;;;;;;;;5041309;28;20049;-61
2023/01/05 11:07:04;;;;;;;0.22;0.22;;;;;;;;;;5045679;28;20060;-61
2023/01/05 11:09:39;;;;;;;0.17;0.17;;;;;;;;;;5045872;28;20051;-62
2023/01/05 11:12:15;;;;;;;0.10;0.10;;;;;;;;;;5044743;28;20397;-61
2023/01/05 11:14:44;;;;;;;0.65;0.10;;;;;;;;;;5043976;28;20056;-61
2023/01/05 11:17:18;;;;;;;0.10;0.10;;;;;;;;;;5044296;28;20061;-62
2023/01/05 11:19:48;;;;;;;0.65;0.32;;;;;;;;;;5043024;28;20061;-61
2023/01/05 11:22:31;;;;;;;0.57;0.30;;;;;;;;;;5046487;28;20052;-61
2023/01/05 11:25:17;;;;;;;1.13;0.17;;;;;;;;;;5044115;28;20136;-62
2023/01/05 11:27:46;;;;;;;0.90;0.22;;;;;;;;;;5033090;28;20060;-62
2023/01/05 11:30:24;;;;;;;0.10;0.10;;;;;;;;;;5045724;28;20053;-61
2023/01/05 11:32:53;;;;;;;0.08;0.05;;;;;;;;;;5047378;28;20061;-62
2023/01/05 11:35:22;;;;;;;0.08;0.08;;;;;;;;;;5049094;28;20049;-62
2023/01/05 11:37:52;;;;;;;0.00;0.00;;;;;;;;;;5046181;28;20049;-61
2023/01/05 11:40:22;;;;;;;0.10;0.10;;;;;;;;;;5049868;28;20053;-61
2023/01/05 11:42:51;;;;;;;0.10;0.10;;;;;;;;;;5043458;28;20147;-61
2023/01/05 11:45:20;;;;;;;0.10;0.10;;;;;;;;;;5047559;28;20413;-61
2023/01/05 11:47:50;;;;;;;0.10;0.10;;;;;;;;;;5046027;28;20084;-61
2023/01/05 11:50:21;;;;;;;0.10;0.10;;;;;;;;;;5048067;28;20060;-62
2023/01/05 11:52:50;;;;;;;0.10;0.10;;;;;;;;;;5042109;28;20501;-61
2023/01/05 11:55:37;;;;;;;0.38;0.38;;;;;;;;;;5045874;28;20045;-62
2023/01/05 11:58:20;;;;;;;0.10;0.10;;;;;;;;;;5040807;28;20056;-62
2023/01/05 12:00:54;;;;;;;0.00;0.00;;;;;;;;;;5039466;28;20041;-62
2023/01/05 12:03:29;;;;;;;0.00;0.00;;;;;;;;;;5046827;28;20049;-62
2023/01/05 12:05:59;;;;;;;0.10;0.10;;;;;;;;;;5048195;28;20076;-62
2023/01/05 12:08:29;;;;;;;0.10;0.10;;;;;;;;;;5039228;28;20059;-62
2023/01/05 12:11:05;;;;;;;0.10;0.10;;;;;;;;;;5046333;28;20470;-62
2023/01/05 12:14:05;;;;;;;0.10;0.10;;;;;;;;;;5046441;28;20049;-62
2023/01/05 12:16:41;;;;;;;0.10;0.10;;;;;;;;;;5041002;28;20064;-61
2023/01/05 12:19:12;;;;;;;0.00;0.00;;;;;;;;;;5044008;28;20132;-62
2023/01/05 12:21:44;;;;;;;0.10;0.10;;;;;;;;;;5042487;28;20045;-62
2023/01/05 12:24:33;;;;;;;0.10;0.10;;;;;;;;;;5047886;28;20044;-61
2023/01/05 12:27:09;;;;;;;0.10;0.10;;;;;;;;;;5046854;28;20172;-61
2023/01/05 12:29:48;;;;;;;0.20;0.10;;;;;;;;;;5047008;28;20049;-62
2023/01/05 12:32:42;;;;;;;0.10;0.10;;;;;;;;;;5040509;28;20060;-62
2023/01/05 12:35:47;;;;;;;0.20;0.20;;;;;;;;;;5049163;28;20049;-61
2023/01/05 12:38:24;;;;;;;0.10;0.10;;;;;;;;;;5041809;28;20089;-61
2023/01/05 12:41:06;;;;;;;0.10;0.10;;;;;;;;;;5049584;28;20584;-62
2023/01/05 12:43:38;;;;;;;0.10;0.10;;;;;;;;;;5046179;28;20052;-61
2023/01/05 12:46:14;;;;;;;0.30;0.10;;;;;;;;;;5047439;28;20139;-63
2023/01/05 12:48:45;;;;;;;0.10;0.10;;;;;;;;;;5044459;28;20124;-62
2023/01/05 12:51:17;;;;;;;0.10;0.10;;;;;;;;;;5047641;28;20053;-61
2023/01/05 12:53:50;;;;;;;0.10;0.10;;;;;;;;;;5048850;28;20044;-62
2023/01/05 12:56:22;;;;;;;0.10;0.10;;;;;;;;;;5047065;28;20048;-61
2023/01/05 12:58:53;;;;;;;0.38;0.20;;;;;;;;;;5043556;28;20041;-61
2023/01/05 13:01:25;;;;;;;0.10;0.10;;;;;;;;;;5048362;28;20072;-61
2023/01/05 13:03:56;;;;;;;0.10;0.10;;;;;;;;;;5042627;28;20048;-61
2023/01/05 13:06:25;;;;;;;0.10;0.10;;;;;;;;;;5044177;28;20057;-62
2023/01/05 13:08:55;;;;;;;0.10;0.10;;;;;;;;;;5047436;28;20060;-62
2023/01/05 13:11:26;;;;;;;0.10;0.10;;;;;;;;;;5045665;28;20107;-61
2023/01/05 13:13:56;;;;;;;0.10;0.10;;;;;;;;;;5046672;28;20136;-61
2023/01/05 13:16:27;;;;;;;0.17;0.10;;;;;;;;;;5048444;28;20056;-61
2023/01/05 13:19:01;;;;;;;8.77;0.25;;;;;;;;;;5047656;28;20128;-61
2023/01/05 13:21:31;;;;;;;0.52;0.20;;;;;;;;;;5048976;28;20164;-61
2023/01/05 13:24:02;;;;;;;0.25;0.10;;;;;;;;;;5043319;28;20422;-61
2023/01/05 13:26:30;;;;;;;0.10;0.10;;;;;;;;;;5047644;28;20061;-62
2023/01/05 13:29:05;;;;;;;0.10;0.10;;;;;;;;;;5035352;28;20569;-61
2023/01/05 13:31:44;;;;;;;0.10;0.10;;;;;;;;;;5049131;28;20049;-61
2023/01/05 13:34:19;;;;;;;0.00;0.00;;;;;;;;;;5048454;28;20408;-61
2023/01/05 13:36:55;;;;;;;1.10;0.20;;;;;;;;;;5037573;28;20045;-62
2023/01/05 13:39:30;;;;;;;0.10;0.10;;;;;;;;;;5044472;28;20152;-62
2023/01/05 13:42:07;;;;;;;0.10;0.10;;;;;;;;;;5043640;28;20110;-62
2023/01/05 13:44:42;;;;;;;0.10;0.10;;;;;;;;;;5049677;28;20045;-62
2023/01/05 13:47:16;;;;;;;0.10;0.10;;;;;;;;;;5048133;28;20049;-63
2023/01/05 13:50:04;;;;;;;0.10;0.10;;;;;;;;;;5045017;28;20053;-62
2023/01/05 13:52:38;;;;;;;0.98;0.25;;;;;;;;;;5044756;28;20087;-62
2023/01/05 13:55:12;;;;;;;0.10;0.10;;;;;;;;;;5047782;28;20045;-62
2023/01/05 13:57:49;;;;;;;0.20;0.20;;;;;;;;;;5038040;28;20053;-62
2023/01/05 14:00:21;;;;;;;0.10;0.10;;;;;;;;;;5051175;28;20055;-62
2023/01/05 14:02:57;;;;;;;0.10;0.10;;;;;;;;;;5043037;28;20049;-62
2023/01/05 14:05:29;;;;;;;0.10;0.10;;;;;;;;;;5037896;28;20067;-62
2023/01/05 14:07:58;;;;;;;0.60;0.35;;;;;;;;;;5042016;28;20053;-62
2023/01/05 14:10:28;;;;;;;0.10;0.10;;;;;;;;;;5045873;28;20577;-62
2023/01/05 14:12:57;;;;;;;0.00;0.00;;;;;;;;;;5044396;28;21145;-62
2023/01/05 14:15:43;;;;;;;0.10;0.10;;;;;;;;;;5046894;28;20049;-62
2023/01/05 14:18:13;;;;;;;0.63;0.35;;;;;;;;;;5045877;28;20051;-62
2023/01/05 14:20:45;;;;;;;1.63;0.30;;;;;;;;;;5047145;28;20122;-62
2023/01/05 14:23:32;;;;;;;1.13;0.30;;;;;;;;;;5044087;28;20469;-61
2023/01/05 14:26:00;;;;;;;0.45;0.30;;;;;;;;;;5048008;28;20049;-61
2023/01/05 14:28:43;;;;;;;1.65;0.40;;;;;;;;;;5045448;28;20115;-61
2023/01/05 14:31:29;;;;;;;0.17;0.17;;;;;;;;;;5050941;28;20048;-60
2023/01/05 14:34:02;;;;;;;2.78;0.30;;;;;;;;;;5032643;28;20045;-61
2023/01/05 14:36:32;;;;;;;0.20;0.20;;;;;;;;;;5045560;28;20481;-61
2023/01/05 14:39:01;;;;;;;0.20;0.20;;;;;;;;;;5045436;28;20512;-60
2023/01/05 14:41:31;;;;;;;0.22;0.22;;;;;;;;;;5044415;28;20128;-62
2023/01/05 14:44:04;;;;;;;12.80;0.38;;;;;;;;;;5041969;28;20076;-61
2023/01/05 14:46:44;;;;;;;0.20;0.20;;;;;;;;;;5045414;28;20048;-61
2023/01/05 14:49:21;;;;;;;0.73;0.47;;;;;;;;;;5046080;28;20569;-61
2023/01/05 14:51:53;;;;;;;0.10;0.10;;;;;;;;;;5045513;28;20136;-61
2023/01/05 14:54:35;;;;;;;8.73;0.50;;;;;;;;;;5045790;28;20048;-61
2023/01/05 14:57:23;;;;;;;3.10;0.35;;;;;;;;;;5046130;28;20045;-60
2023/01/05 14:59:56;;;;;;;0.10;0.10;;;;;;;;;;5042242;28;20069;-60
2023/01/05 15:02:27;;;;;;;0.35;0.30;;;;;;;;;;5043144;28;20156;-60
2023/01/05 15:05:02;;;;;;;0.20;0.20;;;;;;;;;;5046411;28;20075;-60
2023/01/05 15:07:38;;;;;;;0.20;0.20;;;;;;;;;;5039871;28;20060;-61
2023/01/05 15:10:14;;;;;;;0.38;0.20;;;;;;;;;;5044987;28;20044;-60
2023/01/05 15:12:56;;;;;;;1.23;0.95;;;;;;;;;;5048367;28;20515;-60
2023/01/05 15:15:44;;;;;;;1.45;0.25;;;;;;;;;;5047585;28;20053;-61
2023/01/05 15:18:24;;;;;;;0.20;0.20;;;;;;;;;;5038848;28;20045;-61
2023/01/05 15:24:47;;;;;;;0.60;0.20;;;;;;;;;;5002351;28;20212;-63
2023/01/05 15:27:34;;;;;;;0.52;0.20;;;;;;;;;;5011391;28;20136;-61
2023/01/05 15:30:06;;;;;;;0.25;0.20;;;;;;;;;;5002313;28;20070;-60
2023/01/05 15:32:35;;;;;;;0.10;0.10;;;;;;;;;;5002384;28;20049;-61
2023/01/05 15:35:05;;;;;;;0.20;0.20;;;;;;;;;;5005847;28;20056;-61
2023/01/05 15:37:35;;;;;;;0.52;0.43;;;;;;;;;;5004684;28;20141;-60
2023/01/05 15:40:06;;;;;;;0.32;0.30;;;;;;;;;;5004053;28;20108;-61
2023/01/05 15:42:38;;;;;;;0.40;0.40;;;;;;;;;;5007785;28;20038;-61
2023/01/05 15:45:08;;;;;;;4.43;0.28;;;;;;;;;;5003241;28;20412;-61
2023/01/05 15:47:39;;;;;;;0.10;0.10;;;;;;;;;;5014893;28;20104;-61